sensor_id;sensor_type;location;lat;lon;timestamp;P1;durP1;ratioP1;P2;durP2;ratioP2
2760;SDS011;15420;48.636;9.798;2023-01-16T00:02:28;3.33;;;1.03;;
2760;SDS011;15420;48.636;9.798;2023-01-16T00:04:56;1.43;;;1.33;;
2760;SDS011;15420;48.636;9.798;2023-01-16T00:07:23;3.40;;;1.10;;
2760;SDS011;15420;48.636;9.798;2023-01-16T00:09:49;3.50;;;1.00;;
2760;SDS011;15420;48.636;9.798;2023-01-16T00:12:15;1.63;;;1.13;;
2760;SDS011;15420;48.636;9.798;2023-01-16T00:14:41;1.50;;;1.47;;
2760;SDS011;15420;48.636;9.798;2023-01-16T00:17:09;2.00;;;0.90;;
2760;SDS011;15420;48.636;9.798;2023-01-16T00:19:35;1.00;;;1.00;;
2760;SDS011;15420;48.636;9.798;2023-01-16T00:22:02;1.00;;;1.00;;
2760;SDS011;15420;48.636;9.798;2023-01-16T00:24:28;2.00;;;1.17;;
2760;SDS011;15420;48.636;9.798;2023-01-16T00:26:54;1.47;;;1.37;;
2760;SDS011;15420;48.636;9.798;2023-01-16T00:29:23;1.93;;;1.00;;
2760;SDS011;15420;48.636;9.798;2023-01-16T00:31:49;1.80;;;1.03;;
2760;SDS011;15420;48.636;9.798;2023-01-16T00:34:15;1.97;;;1.00;;
2760;SDS011;15420;48.636;9.798;2023-01-16T00:36:43;4.50;;;1.30;;
2760;SDS011;15420;48.636;9.798;2023-01-16T00:39:10;2.20;;;1.10;;
2760;SDS011;15420;48.636;9.798;2023-01-16T00:41:41;3.23;;;1.40;;
2760;SDS011;15420;48.636;9.798;2023-01-16T00:44:07;2.50;;;0.93;;
2760;SDS011;15420;48.636;9.798;2023-01-16T00:46:33;1.03;;;1.00;;
2760;SDS011;15420;48.636;9.798;2023-01-16T00:49:04;1.40;;;1.30;;
2760;SDS011;15420;48.636;9.798;2023-01-16T00:51:32;5.87;;;1.20;;
2760;SDS011;15420;48.636;9.798;2023-01-16T00:53:58;1.37;;;1.23;;
2760;SDS011;15420;48.636;9.798;2023-01-16T00:56:24;1.30;;;1.20;;
2760;SDS011;15420;48.636;9.798;2023-01-16T00:58:51;0.90;;;0.90;;
2760;SDS011;15420;48.636;9.798;2023-01-16T01:01:17;0.97;;;0.97;;
2760;SDS011;15420;48.636;9.798;2023-01-16T01:03:45;1.33;;;0.97;;
2760;SDS011;15420;48.636;9.798;2023-01-16T01:06:11;1.03;;;1.03;;
2760;SDS011;15420;48.636;9.798;2023-01-16T01:08:38;1.23;;;0.90;;
2760;SDS011;15420;48.636;9.798;2023-01-16T01:11:07;1.70;;;0.70;;
2760;SDS011;15420;48.636;9.798;2023-01-16T01:13:37;1.30;;;1.00;;
2760;SDS011;15420;48.636;9.798;2023-01-16T01:16:03;0.93;;;0.80;;
2760;SDS011;15420;48.636;9.798;2023-01-16T01:18:30;1.90;;;1.80;;
2760;SDS011;15420;48.636;9.798;2023-01-16T01:20:56;4.13;;;0.90;;
2760;SDS011;15420;48.636;9.798;2023-01-16T01:23:25;4.87;;;1.60;;
2760;SDS011;15420;48.636;9.798;2023-01-16T01:25:51;1.83;;;1.50;;
2760;SDS011;15420;48.636;9.798;2023-01-16T01:28:20;1.63;;;1.20;;
2760;SDS011;15420;48.636;9.798;2023-01-16T01:30:46;2.50;;;1.23;;
2760;SDS011;15420;48.636;9.798;2023-01-16T01:33:12;1.20;;;0.80;;
2760;SDS011;15420;48.636;9.798;2023-01-16T01:35:41;0.90;;;0.90;;
2760;SDS011;15420;48.636;9.798;2023-01-16T01:38:07;1.20;;;1.07;;
2760;SDS011;15420;48.636;9.798;2023-01-16T01:40:33;2.80;;;1.00;;
2760;SDS011;15420;48.636;9.798;2023-01-16T01:42:59;1.67;;;1.10;;
2760;SDS011;15420;48.636;9.798;2023-01-16T01:45:30;0.70;;;0.60;;
2760;SDS011;15420;48.636;9.798;2023-01-16T01:53:17;0.87;;;0.77;;
2760;SDS011;15420;48.636;9.798;2023-01-16T01:55:56;2.20;;;1.00;;
2760;SDS011;15420;48.636;9.798;2023-01-16T01:58:28;5.60;;;1.03;;
2760;SDS011;15420;48.636;9.798;2023-01-16T02:00:56;0.70;;;0.70;;
2760;SDS011;15420;48.636;9.798;2023-01-16T02:03:32;0.80;;;0.80;;
2760;SDS011;15420;48.636;9.798;2023-01-16T02:06:14;1.70;;;0.93;;
2760;SDS011;15420;48.636;9.798;2023-01-16T02:08:49;1.00;;;0.63;;
2760;SDS011;15420;48.636;9.798;2023-01-16T02:11:25;2.07;;;0.83;;
2760;SDS011;15420;48.636;9.798;2023-01-16T02:14:09;4.13;;;0.97;;
2760;SDS011;15420;48.636;9.798;2023-01-16T02:16:40;2.40;;;1.07;;
2760;SDS011;15420;48.636;9.798;2023-01-16T02:19:33;1.13;;;0.90;;
2760;SDS011;15420;48.636;9.798;2023-01-16T02:31:39;1.43;;;1.00;;
2760;SDS011;15420;48.636;9.798;2023-01-16T02:34:25;4.50;;;0.90;;
2760;SDS011;15420;48.636;9.798;2023-01-16T02:39:46;0.77;;;0.77;;
2760;SDS011;15420;48.636;9.798;2023-01-16T02:45:12;2.50;;;0.97;;
2760;SDS011;15420;48.636;9.798;2023-01-16T02:52:52;0.90;;;0.77;;
2760;SDS011;15420;48.636;9.798;2023-01-16T02:57:52;1.83;;;0.90;;
2760;SDS011;15420;48.636;9.798;2023-01-16T03:00:22;2.93;;;1.00;;
2760;SDS011;15420;48.636;9.798;2023-01-16T03:02:49;0.87;;;0.70;;
2760;SDS011;15420;48.636;9.798;2023-01-16T03:05:19;1.73;;;0.70;;
2760;SDS011;15420;48.636;9.798;2023-01-16T03:08:05;2.63;;;0.80;;
2760;SDS011;15420;48.636;9.798;2023-01-16T03:13:23;0.70;;;0.70;;
2760;SDS011;15420;48.636;9.798;2023-01-16T03:27:17;1.90;;;0.97;;
2760;SDS011;15420;48.636;9.798;2023-01-16T03:29:58;1.40;;;0.97;;
2760;SDS011;15420;48.636;9.798;2023-01-16T03:35:39;1.27;;;0.60;;
2760;SDS011;15420;48.636;9.798;2023-01-16T03:38:14;1.17;;;0.80;;
2760;SDS011;15420;48.636;9.798;2023-01-16T03:40:46;2.87;;;1.43;;
2760;SDS011;15420;48.636;9.798;2023-01-16T03:43:15;3.13;;;0.90;;
2760;SDS011;15420;48.636;9.798;2023-01-16T03:48:21;0.67;;;0.67;;
2760;SDS011;15420;48.636;9.798;2023-01-16T03:51:05;0.70;;;0.57;;
2760;SDS011;15420;48.636;9.798;2023-01-16T03:53:35;3.13;;;0.80;;
2760;SDS011;15420;48.636;9.798;2023-01-16T03:56:11;2.43;;;0.70;;
2760;SDS011;15420;48.636;9.798;2023-01-16T03:58:48;1.23;;;0.70;;
2760;SDS011;15420;48.636;9.798;2023-01-16T04:06:31;2.87;;;0.83;;
2760;SDS011;15420;48.636;9.798;2023-01-16T04:09:12;0.77;;;0.63;;
2760;SDS011;15420;48.636;9.798;2023-01-16T04:11:52;2.23;;;0.80;;
2760;SDS011;15420;48.636;9.798;2023-01-16T04:14:22;1.80;;;0.77;;
2760;SDS011;15420;48.636;9.798;2023-01-16T04:16:54;2.73;;;0.97;;
2760;SDS011;15420;48.636;9.798;2023-01-16T04:19:23;2.33;;;1.13;;
2760;SDS011;15420;48.636;9.798;2023-01-16T04:21:58;2.20;;;1.10;;
2760;SDS011;15420;48.636;9.798;2023-01-16T04:24:24;0.80;;;0.60;;
2760;SDS011;15420;48.636;9.798;2023-01-16T04:26:50;2.87;;;1.20;;
2760;SDS011;15420;48.636;9.798;2023-01-16T04:29:16;1.53;;;0.70;;
2760;SDS011;15420;48.636;9.798;2023-01-16T04:31:45;0.73;;;0.73;;
2760;SDS011;15420;48.636;9.798;2023-01-16T04:34:11;1.27;;;1.00;;
2760;SDS011;15420;48.636;9.798;2023-01-16T04:36:40;1.53;;;1.03;;
2760;SDS011;15420;48.636;9.798;2023-01-16T04:39:08;2.77;;;1.13;;
2760;SDS011;15420;48.636;9.798;2023-01-16T04:41:34;2.30;;;1.10;;
2760;SDS011;15420;48.636;9.798;2023-01-16T04:44:01;1.87;;;1.00;;
2760;SDS011;15420;48.636;9.798;2023-01-16T04:46:30;3.00;;;0.90;;
2760;SDS011;15420;48.636;9.798;2023-01-16T04:48:56;0.97;;;0.97;;
2760;SDS011;15420;48.636;9.798;2023-01-16T04:51:25;1.10;;;1.00;;
2760;SDS011;15420;48.636;9.798;2023-01-16T04:53:52;4.07;;;1.07;;
2760;SDS011;15420;48.636;9.798;2023-01-16T04:56:18;2.57;;;0.97;;
2760;SDS011;15420;48.636;9.798;2023-01-16T04:58:46;0.83;;;0.77;;
2760;SDS011;15420;48.636;9.798;2023-01-16T05:01:14;1.73;;;1.20;;
2760;SDS011;15420;48.636;9.798;2023-01-16T05:03:41;1.73;;;1.07;;
2760;SDS011;15420;48.636;9.798;2023-01-16T05:06:10;2.10;;;1.20;;
2760;SDS011;15420;48.636;9.798;2023-01-16T05:08:39;1.43;;;1.27;;
2760;SDS011;15420;48.636;9.798;2023-01-16T05:11:05;1.10;;;0.90;;
2760;SDS011;15420;48.636;9.798;2023-01-16T05:13:31;1.90;;;0.93;;
2760;SDS011;15420;48.636;9.798;2023-01-16T05:15:57;1.17;;;0.87;;
2760;SDS011;15420;48.636;9.798;2023-01-16T05:18:26;2.63;;;0.80;;
2760;SDS011;15420;48.636;9.798;2023-01-16T05:20:52;1.57;;;1.07;;
2760;SDS011;15420;48.636;9.798;2023-01-16T05:23:19;2.80;;;1.60;;
2760;SDS011;15420;48.636;9.798;2023-01-16T05:25:46;2.90;;;1.70;;
2760;SDS011;15420;48.636;9.798;2023-01-16T05:28:13;2.00;;;1.77;;
2760;SDS011;15420;48.636;9.798;2023-01-16T05:30:39;2.13;;;1.30;;
2760;SDS011;15420;48.636;9.798;2023-01-16T05:33:05;3.67;;;1.47;;
2760;SDS011;15420;48.636;9.798;2023-01-16T05:35:36;1.20;;;1.10;;
2760;SDS011;15420;48.636;9.798;2023-01-16T05:38:02;3.67;;;1.87;;
2760;SDS011;15420;48.636;9.798;2023-01-16T05:40:28;1.57;;;1.20;;
2760;SDS011;15420;48.636;9.798;2023-01-16T05:42:54;1.90;;;1.17;;
2760;SDS011;15420;48.636;9.798;2023-01-16T05:45:23;2.70;;;1.53;;
2760;SDS011;15420;48.636;9.798;2023-01-16T05:47:49;4.10;;;1.40;;
2760;SDS011;15420;48.636;9.798;2023-01-16T05:50:15;3.23;;;1.90;;
2760;SDS011;15420;48.636;9.798;2023-01-16T05:52:42;2.80;;;1.47;;
2760;SDS011;15420;48.636;9.798;2023-01-16T05:55:08;2.67;;;2.10;;
2760;SDS011;15420;48.636;9.798;2023-01-16T05:57:39;1.90;;;1.40;;
2760;SDS011;15420;48.636;9.798;2023-01-16T06:00:05;3.33;;;1.40;;
2760;SDS011;15420;48.636;9.798;2023-01-16T06:02:32;2.67;;;1.60;;
2760;SDS011;15420;48.636;9.798;2023-01-16T06:05:01;1.70;;;1.50;;
2760;SDS011;15420;48.636;9.798;2023-01-16T06:07:28;1.67;;;1.43;;
2760;SDS011;15420;48.636;9.798;2023-01-16T06:09:54;5.03;;;1.40;;
2760;SDS011;15420;48.636;9.798;2023-01-16T06:12:20;2.93;;;1.70;;
2760;SDS011;15420;48.636;9.798;2023-01-16T06:14:46;1.90;;;1.70;;
2760;SDS011;15420;48.636;9.798;2023-01-16T06:17:17;3.87;;;1.87;;
2760;SDS011;15420;48.636;9.798;2023-01-16T06:19:44;4.23;;;1.90;;
2760;SDS011;15420;48.636;9.798;2023-01-16T06:22:11;3.37;;;1.93;;
2760;SDS011;15420;48.636;9.798;2023-01-16T06:24:40;3.60;;;1.47;;
2760;SDS011;15420;48.636;9.798;2023-01-16T06:27:06;2.80;;;1.20;;
2760;SDS011;15420;48.636;9.798;2023-01-16T06:29:32;1.87;;;1.40;;
2760;SDS011;15420;48.636;9.798;2023-01-16T06:32:03;4.33;;;2.03;;
2760;SDS011;15420;48.636;9.798;2023-01-16T06:34:32;1.57;;;1.30;;
2760;SDS011;15420;48.636;9.798;2023-01-16T06:36:58;7.70;;;1.80;;
2760;SDS011;15420;48.636;9.798;2023-01-16T06:39:24;6.13;;;1.77;;
2760;SDS011;15420;48.636;9.798;2023-01-16T06:41:50;1.17;;;1.07;;
2760;SDS011;15420;48.636;9.798;2023-01-16T06:44:16;2.90;;;1.40;;
2760;SDS011;15420;48.636;9.798;2023-01-16T06:46:42;2.60;;;1.50;;
2760;SDS011;15420;48.636;9.798;2023-01-16T06:49:09;1.63;;;1.53;;
2760;SDS011;15420;48.636;9.798;2023-01-16T06:51:36;3.33;;;1.63;;
2760;SDS011;15420;48.636;9.798;2023-01-16T06:54:02;2.80;;;1.57;;
2760;SDS011;15420;48.636;9.798;2023-01-16T06:56:28;3.70;;;2.40;;
2760;SDS011;15420;48.636;9.798;2023-01-16T06:58:55;1.97;;;1.47;;
2760;SDS011;15420;48.636;9.798;2023-01-16T07:01:21;1.70;;;1.60;;
2760;SDS011;15420;48.636;9.798;2023-01-16T07:03:49;3.73;;;1.60;;
2760;SDS011;15420;48.636;9.798;2023-01-16T07:06:15;2.77;;;1.90;;
2760;SDS011;15420;48.636;9.798;2023-01-16T07:08:43;1.90;;;1.80;;
2760;SDS011;15420;48.636;9.798;2023-01-16T07:11:14;4.30;;;1.77;;
2760;SDS011;15420;48.636;9.798;2023-01-16T07:13:43;3.53;;;2.00;;
2760;SDS011;15420;48.636;9.798;2023-01-16T07:16:13;2.97;;;1.93;;
2760;SDS011;15420;48.636;9.798;2023-01-16T07:19:01;1.90;;;1.80;;
2760;SDS011;15420;48.636;9.798;2023-01-16T07:21:48;1.80;;;1.70;;
2760;SDS011;15420;48.636;9.798;2023-01-16T07:24:36;3.63;;;1.97;;
2760;SDS011;15420;48.636;9.798;2023-01-16T07:27:06;1.90;;;1.70;;
2760;SDS011;15420;48.636;9.798;2023-01-16T07:29:34;1.90;;;1.70;;
2760;SDS011;15420;48.636;9.798;2023-01-16T07:32:03;1.30;;;1.20;;
2760;SDS011;15420;48.636;9.798;2023-01-16T07:34:34;1.50;;;1.40;;
2760;SDS011;15420;48.636;9.798;2023-01-16T07:37:00;1.67;;;1.57;;
2760;SDS011;15420;48.636;9.798;2023-01-16T07:39:26;1.63;;;1.50;;
2760;SDS011;15420;48.636;9.798;2023-01-16T07:41:52;2.47;;;1.90;;
2760;SDS011;15420;48.636;9.798;2023-01-16T07:44:18;2.20;;;1.43;;
2760;SDS011;15420;48.636;9.798;2023-01-16T07:46:45;2.00;;;1.43;;
2760;SDS011;15420;48.636;9.798;2023-01-16T07:49:13;1.93;;;1.20;;
2760;SDS011;15420;48.636;9.798;2023-01-16T07:51:41;3.03;;;1.53;;
2760;SDS011;15420;48.636;9.798;2023-01-16T07:54:10;1.23;;;1.10;;
2760;SDS011;15420;48.636;9.798;2023-01-16T07:56:36;1.83;;;1.57;;
2760;SDS011;15420;48.636;9.798;2023-01-16T07:59:05;2.30;;;1.50;;
2760;SDS011;15420;48.636;9.798;2023-01-16T08:01:31;4.30;;;1.40;;
2760;SDS011;15420;48.636;9.798;2023-01-16T08:03:58;1.60;;;1.50;;
2760;SDS011;15420;48.636;9.798;2023-01-16T08:06:26;2.63;;;1.37;;
2760;SDS011;15420;48.636;9.798;2023-01-16T08:08:52;1.87;;;1.17;;
2760;SDS011;15420;48.636;9.798;2023-01-16T08:11:19;1.10;;;1.10;;
2760;SDS011;15420;48.636;9.798;2023-01-16T08:14:13;2.10;;;1.60;;
2760;SDS011;15420;48.636;9.798;2023-01-16T08:16:40;4.13;;;2.40;;
2760;SDS011;15420;48.636;9.798;2023-01-16T08:19:06;4.07;;;2.80;;
2760;SDS011;15420;48.636;9.798;2023-01-16T08:21:32;2.23;;;2.00;;
2760;SDS011;15420;48.636;9.798;2023-01-16T08:24:03;3.13;;;2.07;;
2760;SDS011;15420;48.636;9.798;2023-01-16T08:26:30;3.93;;;2.40;;
2760;SDS011;15420;48.636;9.798;2023-01-16T08:28:56;4.10;;;2.40;;
2760;SDS011;15420;48.636;9.798;2023-01-16T08:31:26;3.20;;;2.00;;
2760;SDS011;15420;48.636;9.798;2023-01-16T08:33:55;2.97;;;2.03;;
2760;SDS011;15420;48.636;9.798;2023-01-16T08:36:23;2.53;;;1.77;;
2760;SDS011;15420;48.636;9.798;2023-01-16T08:38:50;1.67;;;1.57;;
2760;SDS011;15420;48.636;9.798;2023-01-16T08:41:17;1.97;;;1.70;;
2760;SDS011;15420;48.636;9.798;2023-01-16T08:44:07;1.40;;;1.30;;
2760;SDS011;15420;48.636;9.798;2023-01-16T08:47:00;2.07;;;1.70;;
2760;SDS011;15420;48.636;9.798;2023-01-16T08:49:52;2.67;;;1.93;;
2760;SDS011;15420;48.636;9.798;2023-01-16T08:52:37;2.10;;;1.53;;
2760;SDS011;15420;48.636;9.798;2023-01-16T08:55:06;2.57;;;1.83;;
2760;SDS011;15420;48.636;9.798;2023-01-16T08:57:32;4.10;;;1.70;;
2760;SDS011;15420;48.636;9.798;2023-01-16T09:00:01;2.33;;;2.13;;
2760;SDS011;15420;48.636;9.798;2023-01-16T09:02:34;1.80;;;1.47;;
2760;SDS011;15420;48.636;9.798;2023-01-16T09:05:03;2.20;;;1.60;;
2760;SDS011;15420;48.636;9.798;2023-01-16T09:07:32;1.43;;;1.33;;
2760;SDS011;15420;48.636;9.798;2023-01-16T09:09:58;4.97;;;1.60;;
2760;SDS011;15420;48.636;9.798;2023-01-16T09:12:25;2.90;;;1.63;;
2760;SDS011;15420;48.636;9.798;2023-01-16T09:15:12;2.53;;;2.33;;
2760;SDS011;15420;48.636;9.798;2023-01-16T09:17:40;1.00;;;1.00;;
2760;SDS011;15420;48.636;9.798;2023-01-16T09:20:13;4.40;;;1.47;;
2760;SDS011;15420;48.636;9.798;2023-01-16T09:22:40;1.93;;;1.50;;
2760;SDS011;15420;48.636;9.798;2023-01-16T09:25:06;1.40;;;1.30;;
2760;SDS011;15420;48.636;9.798;2023-01-16T09:27:32;1.30;;;1.20;;
2760;SDS011;15420;48.636;9.798;2023-01-16T09:30:00;1.60;;;1.50;;
2760;SDS011;15420;48.636;9.798;2023-01-16T09:32:27;2.00;;;1.80;;
2760;SDS011;15420;48.636;9.798;2023-01-16T09:34:55;1.13;;;1.10;;
2760;SDS011;15420;48.636;9.798;2023-01-16T09:37:22;2.13;;;1.80;;
2760;SDS011;15420;48.636;9.798;2023-01-16T09:39:48;3.00;;;1.70;;
2760;SDS011;15420;48.636;9.798;2023-01-16T09:45:42;3.90;;;2.80;;
2760;SDS011;15420;48.636;9.798;2023-01-16T09:48:15;7.20;;;3.37;;
2760;SDS011;15420;48.636;9.798;2023-01-16T09:50:57;4.50;;;2.73;;
2760;SDS011;15420;48.636;9.798;2023-01-16T09:53:43;4.00;;;2.10;;
2760;SDS011;15420;48.636;9.798;2023-01-16T09:56:40;2.83;;;2.50;;
2760;SDS011;15420;48.636;9.798;2023-01-16T10:04:55;4.93;;;2.77;;
2760;SDS011;15420;48.636;9.798;2023-01-16T10:13:03;5.97;;;2.80;;
2760;SDS011;15420;48.636;9.798;2023-01-16T10:15:43;2.67;;;1.80;;
2760;SDS011;15420;48.636;9.798;2023-01-16T10:24:23;1.20;;;1.00;;
2760;SDS011;15420;48.636;9.798;2023-01-16T10:27:15;2.33;;;1.33;;
2760;SDS011;15420;48.636;9.798;2023-01-16T10:30:01;1.00;;;1.00;;
2760;SDS011;15420;48.636;9.798;2023-01-16T10:35:23;1.77;;;1.30;;
2760;SDS011;15420;48.636;9.798;2023-01-16T10:38:21;1.03;;;0.93;;
2760;SDS011;15420;48.636;9.798;2023-01-16T10:47:39;1.23;;;1.00;;
2760;SDS011;15420;48.636;9.798;2023-01-16T10:50:27;3.43;;;0.80;;
2760;SDS011;15420;48.636;9.798;2023-01-16T10:52:54;1.00;;;0.73;;
2760;SDS011;15420;48.636;9.798;2023-01-16T10:55:24;0.70;;;0.70;;
2760;SDS011;15420;48.636;9.798;2023-01-16T10:57:54;1.53;;;0.67;;
2760;SDS011;15420;48.636;9.798;2023-01-16T11:00:31;2.17;;;0.90;;
2760;SDS011;15420;48.636;9.798;2023-01-16T11:03:27;0.73;;;0.73;;
2760;SDS011;15420;48.636;9.798;2023-01-16T11:08:48;1.07;;;0.97;;
2760;SDS011;15420;48.636;9.798;2023-01-16T11:11:18;1.40;;;1.07;;
2760;SDS011;15420;48.636;9.798;2023-01-16T11:20:26;3.97;;;2.67;;
2760;SDS011;15420;48.636;9.798;2023-01-16T11:22:57;4.20;;;2.63;;
2760;SDS011;15420;48.636;9.798;2023-01-16T11:25:27;1.67;;;1.57;;
2760;SDS011;15420;48.636;9.798;2023-01-16T11:27:55;2.03;;;1.53;;
2760;SDS011;15420;48.636;9.798;2023-01-16T11:30:34;1.37;;;1.27;;
2760;SDS011;15420;48.636;9.798;2023-01-16T11:33:14;1.70;;;1.20;;
2760;SDS011;15420;48.636;9.798;2023-01-16T11:35:50;1.23;;;1.13;;
2760;SDS011;15420;48.636;9.798;2023-01-16T11:38:19;2.23;;;2.00;;
2760;SDS011;15420;48.636;9.798;2023-01-16T11:40:54;3.73;;;2.00;;
2760;SDS011;15420;48.636;9.798;2023-01-16T11:43:26;1.67;;;1.50;;
2760;SDS011;15420;48.636;9.798;2023-01-16T11:48:55;0.93;;;0.90;;
2760;SDS011;15420;48.636;9.798;2023-01-16T11:51:27;3.00;;;1.60;;
2760;SDS011;15420;48.636;9.798;2023-01-16T11:53:58;4.13;;;2.40;;
2760;SDS011;15420;48.636;9.798;2023-01-16T12:11:07;2.73;;;1.23;;
2760;SDS011;15420;48.636;9.798;2023-01-16T12:30:18;0.60;;;0.60;;
2760;SDS011;15420;48.636;9.798;2023-01-16T12:36:02;1.13;;;0.57;;
2760;SDS011;15420;48.636;9.798;2023-01-16T12:41:19;4.40;;;0.90;;
2760;SDS011;15420;48.636;9.798;2023-01-16T12:49:31;1.10;;;1.00;;
2760;SDS011;15420;48.636;9.798;2023-01-16T12:52:18;0.50;;;0.50;;
2760;SDS011;15420;48.636;9.798;2023-01-16T12:55:04;1.20;;;0.90;;
2760;SDS011;15420;48.636;9.798;2023-01-16T12:58:03;0.80;;;0.67;;
2760;SDS011;15420;48.636;9.798;2023-01-16T13:05:48;0.70;;;0.70;;
2760;SDS011;15420;48.636;9.798;2023-01-16T13:08:27;1.20;;;0.50;;
2760;SDS011;15420;48.636;9.798;2023-01-16T13:10:56;0.73;;;0.60;;
2760;SDS011;15420;48.636;9.798;2023-01-16T13:13:51;0.80;;;0.50;;
2760;SDS011;15420;48.636;9.798;2023-01-16T13:16:25;1.33;;;0.57;;
2760;SDS011;15420;48.636;9.798;2023-01-16T13:19:15;0.97;;;0.60;;
2760;SDS011;15420;48.636;9.798;2023-01-16T13:24:32;0.50;;;0.50;;
2760;SDS011;15420;48.636;9.798;2023-01-16T13:27:09;2.00;;;0.83;;
2760;SDS011;15420;48.636;9.798;2023-01-16T13:29:50;0.70;;;0.70;;
2760;SDS011;15420;48.636;9.798;2023-01-16T13:32:31;0.70;;;0.60;;
2760;SDS011;15420;48.636;9.798;2023-01-16T13:35:09;0.63;;;0.50;;
2760;SDS011;15420;48.636;9.798;2023-01-16T13:40:27;1.27;;;0.50;;
2760;SDS011;15420;48.636;9.798;2023-01-16T13:46:27;0.63;;;0.63;;
2760;SDS011;15420;48.636;9.798;2023-01-16T13:48:59;0.50;;;0.50;;
2760;SDS011;15420;48.636;9.798;2023-01-16T13:51:28;0.80;;;0.60;;
2760;SDS011;15420;48.636;9.798;2023-01-16T13:54:09;1.27;;;0.70;;
2760;SDS011;15420;48.636;9.798;2023-01-16T13:56:43;0.73;;;0.73;;
2760;SDS011;15420;48.636;9.798;2023-01-16T14:02:22;1.53;;;0.70;;
2760;SDS011;15420;48.636;9.798;2023-01-16T14:10:43;1.07;;;0.80;;
2760;SDS011;15420;48.636;9.798;2023-01-16T14:13:35;1.17;;;0.80;;
2760;SDS011;15420;48.636;9.798;2023-01-16T14:21:44;1.13;;;0.70;;
2760;SDS011;15420;48.636;9.798;2023-01-16T14:24:43;1.10;;;0.73;;
2760;SDS011;15420;48.636;9.798;2023-01-16T14:27:16;1.10;;;0.63;;
2760;SDS011;15420;48.636;9.798;2023-01-16T14:29:49;0.60;;;0.60;;
2760;SDS011;15420;48.636;9.798;2023-01-16T14:32:23;0.83;;;0.80;;
2760;SDS011;15420;48.636;9.798;2023-01-16T14:35:00;0.67;;;0.60;;
2760;SDS011;15420;48.636;9.798;2023-01-16T14:37:33;0.67;;;0.67;;
2760;SDS011;15420;48.636;9.798;2023-01-16T14:42:39;0.80;;;0.80;;
2760;SDS011;15420;48.636;9.798;2023-01-16T14:45:39;0.60;;;0.60;;
2760;SDS011;15420;48.636;9.798;2023-01-16T14:48:44;1.07;;;0.80;;
2760;SDS011;15420;48.636;9.798;2023-01-16T14:54:50;1.53;;;1.07;;
2760;SDS011;15420;48.636;9.798;2023-01-16T14:57:30;1.00;;;0.87;;
2760;SDS011;15420;48.636;9.798;2023-01-16T15:02:41;1.77;;;1.03;;
2760;SDS011;15420;48.636;9.798;2023-01-16T15:07:53;2.30;;;1.00;;
2760;SDS011;15420;48.636;9.798;2023-01-16T15:16:21;0.90;;;0.90;;
2760;SDS011;15420;48.636;9.798;2023-01-16T15:19:20;1.27;;;0.80;;
2760;SDS011;15420;48.636;9.798;2023-01-16T15:22:16;1.10;;;1.00;;
2760;SDS011;15420;48.636;9.798;2023-01-16T15:24:50;1.00;;;0.90;;
2760;SDS011;15420;48.636;9.798;2023-01-16T15:27:34;2.10;;;0.70;;
2760;SDS011;15420;48.636;9.798;2023-01-16T15:30:03;0.90;;;0.90;;
2760;SDS011;15420;48.636;9.798;2023-01-16T15:35:41;1.03;;;0.80;;
2760;SDS011;15420;48.636;9.798;2023-01-16T15:38:11;0.93;;;0.80;;
2760;SDS011;15420;48.636;9.798;2023-01-16T15:40:37;1.23;;;0.77;;
2760;SDS011;15420;48.636;9.798;2023-01-16T15:43:12;2.47;;;1.10;;
2760;SDS011;15420;48.636;9.798;2023-01-16T15:46:02;0.90;;;0.90;;
2760;SDS011;15420;48.636;9.798;2023-01-16T15:51:53;1.00;;;0.90;;
2760;SDS011;15420;48.636;9.798;2023-01-16T15:54:20;1.27;;;1.17;;
2760;SDS011;15420;48.636;9.798;2023-01-16T15:56:47;2.63;;;1.40;;
2760;SDS011;15420;48.636;9.798;2023-01-16T16:01:51;1.10;;;1.10;;
2760;SDS011;15420;48.636;9.798;2023-01-16T16:04:18;1.67;;;1.10;;
2760;SDS011;15420;48.636;9.798;2023-01-16T16:06:47;0.90;;;0.90;;
2760;SDS011;15420;48.636;9.798;2023-01-16T16:09:16;1.13;;;1.00;;
2760;SDS011;15420;48.636;9.798;2023-01-16T16:11:49;1.53;;;1.20;;
2760;SDS011;15420;48.636;9.798;2023-01-16T16:14:33;1.10;;;0.70;;
2760;SDS011;15420;48.636;9.798;2023-01-16T16:25:49;1.10;;;1.00;;
2760;SDS011;15420;48.636;9.798;2023-01-16T16:30:44;2.00;;;1.50;;
2760;SDS011;15420;48.636;9.798;2023-01-16T16:33:16;0.80;;;0.63;;
2760;SDS011;15420;48.636;9.798;2023-01-16T16:35:50;1.57;;;0.80;;
2760;SDS011;15420;48.636;9.798;2023-01-16T16:41:29;1.07;;;0.80;;
2760;SDS011;15420;48.636;9.798;2023-01-16T16:44:24;0.60;;;0.60;;
2760;SDS011;15420;48.636;9.798;2023-01-16T16:46:57;0.87;;;0.80;;
2760;SDS011;15420;48.636;9.798;2023-01-16T16:51:52;0.70;;;0.70;;
2760;SDS011;15420;48.636;9.798;2023-01-16T16:54:18;1.37;;;1.00;;
2760;SDS011;15420;48.636;9.798;2023-01-16T16:56:50;1.53;;;0.93;;
2760;SDS011;15420;48.636;9.798;2023-01-16T16:59:24;1.20;;;1.10;;
2760;SDS011;15420;48.636;9.798;2023-01-16T17:01:53;2.93;;;1.30;;
2760;SDS011;15420;48.636;9.798;2023-01-16T17:04:21;1.97;;;1.07;;
2760;SDS011;15420;48.636;9.798;2023-01-16T17:06:50;1.17;;;0.70;;
2760;SDS011;15420;48.636;9.798;2023-01-16T17:09:17;1.57;;;1.30;;
2760;SDS011;15420;48.636;9.798;2023-01-16T17:11:49;3.73;;;1.37;;
2760;SDS011;15420;48.636;9.798;2023-01-16T17:14:15;1.00;;;0.90;;
2760;SDS011;15420;48.636;9.798;2023-01-16T17:16:44;1.67;;;1.07;;
2760;SDS011;15420;48.636;9.798;2023-01-16T17:21:46;2.00;;;1.23;;
2760;SDS011;15420;48.636;9.798;2023-01-16T17:24:15;1.40;;;1.30;;
2760;SDS011;15420;48.636;9.798;2023-01-16T17:26:45;1.67;;;1.47;;
2760;SDS011;15420;48.636;9.798;2023-01-16T17:29:17;2.73;;;1.90;;
2760;SDS011;15420;48.636;9.798;2023-01-16T17:31:47;2.70;;;1.80;;
2760;SDS011;15420;48.636;9.798;2023-01-16T17:34:14;2.60;;;1.97;;
2760;SDS011;15420;48.636;9.798;2023-01-16T17:36:42;1.43;;;1.33;;
2760;SDS011;15420;48.636;9.798;2023-01-16T17:39:11;3.63;;;1.30;;
2760;SDS011;15420;48.636;9.798;2023-01-16T17:41:38;1.33;;;1.23;;
2760;SDS011;15420;48.636;9.798;2023-01-16T17:44:08;2.07;;;1.87;;
2760;SDS011;15420;48.636;9.798;2023-01-16T17:47:04;10.23;;;6.83;;
2760;SDS011;15420;48.636;9.798;2023-01-16T17:49:31;31.57;;;17.50;;
2760;SDS011;15420;48.636;9.798;2023-01-16T17:52:18;26.23;;;14.40;;
2760;SDS011;15420;48.636;9.798;2023-01-16T17:54:44;27.40;;;12.50;;
2760;SDS011;15420;48.636;9.798;2023-01-16T17:57:29;10.93;;;5.37;;
2760;SDS011;15420;48.636;9.798;2023-01-16T17:59:58;8.23;;;5.20;;
2760;SDS011;15420;48.636;9.798;2023-01-16T18:02:26;6.10;;;4.03;;
2760;SDS011;15420;48.636;9.798;2023-01-16T18:04:52;5.97;;;4.80;;
2760;SDS011;15420;48.636;9.798;2023-01-16T18:07:21;17.63;;;10.90;;
2760;SDS011;15420;48.636;9.798;2023-01-16T18:09:53;14.70;;;11.30;;
2760;SDS011;15420;48.636;9.798;2023-01-16T18:12:19;5.40;;;4.90;;
2760;SDS011;15420;48.636;9.798;2023-01-16T18:15:06;9.63;;;8.30;;
2760;SDS011;15420;48.636;9.798;2023-01-16T18:17:53;4.10;;;3.80;;
2760;SDS011;15420;48.636;9.798;2023-01-16T18:20:19;3.10;;;2.90;;
2760;SDS011;15420;48.636;9.798;2023-01-16T18:22:45;2.30;;;2.10;;
2760;SDS011;15420;48.636;9.798;2023-01-16T18:25:17;1.80;;;1.70;;
2760;SDS011;15420;48.636;9.798;2023-01-16T18:27:45;2.30;;;1.80;;
2760;SDS011;15420;48.636;9.798;2023-01-16T18:30:19;1.60;;;1.50;;
2760;SDS011;15420;48.636;9.798;2023-01-16T18:32:48;1.10;;;1.10;;
2760;SDS011;15420;48.636;9.798;2023-01-16T18:35:19;1.20;;;1.20;;
2760;SDS011;15420;48.636;9.798;2023-01-16T18:37:54;1.77;;;1.67;;
2760;SDS011;15420;48.636;9.798;2023-01-16T18:40:39;0.80;;;0.80;;
2760;SDS011;15420;48.636;9.798;2023-01-16T18:43:23;3.03;;;2.30;;
2760;SDS011;15420;48.636;9.798;2023-01-16T18:46:14;1.63;;;1.53;;
2760;SDS011;15420;48.636;9.798;2023-01-16T18:49:00;1.30;;;0.97;;
2760;SDS011;15420;48.636;9.798;2023-01-16T18:51:50;0.80;;;0.80;;
2760;SDS011;15420;48.636;9.798;2023-01-16T18:54:35;0.87;;;0.80;;
2760;SDS011;15420;48.636;9.798;2023-01-16T18:57:24;0.63;;;0.63;;
2760;SDS011;15420;48.636;9.798;2023-01-16T19:00:13;0.80;;;0.80;;
2760;SDS011;15420;48.636;9.798;2023-01-16T19:03:04;0.60;;;0.60;;
2760;SDS011;15420;48.636;9.798;2023-01-16T19:05:32;0.80;;;0.70;;